sensor_id;sensor_type;location;lat;lon;timestamp;pressure;altitude;pressure_sealevel;temperature;humidity
15558;BME280;7880;50.110;9.372;2023-03-26T00:00:19;6.826721326657571;;;6.75;100.0
15558;BME280;7880;50.110;9.372;2023-03-26T00:05:21;6.791426712839166;;;6.75;100.0
15558;BME280;7880;50.110;9.372;2023-03-26T00:10:27;6.786384626314975;;;6.687;100.0
15558;BME280;7880;50.110;9.372;2023-03-26T00:15:34;6.7510900287947155;;;6.687;100.0
15558;BME280;7880;50.110;9.372;2023-03-26T00:20:52;6.746047944598831;;;6.687;100.0
15558;BME280;7880;50.110;9.372;2023-03-26T00:25:42;6.675458796415478;;;6.625;100.0
15558;BME280;7880;50.110;9.372;2023-03-26T00:30:47;6.690585037652636;;;6.625;100.0
15558;BME280;7880;50.110;9.372;2023-03-26T00:35:52;6.690585037652636;;;6.625;100.0
15558;BME280;7880;50.110;9.372;2023-03-26T00:40:59;6.660332557797664;;;6.625;100.0
15558;BME280;7880;50.110;9.372;2023-03-26T00:46:11;6.675458796415478;;;6.625;100.0
15558;BME280;7880;50.110;9.372;2023-03-26T00:51:10;6.660332557797664;;;6.562;100.0
15558;BME280;7880;50.110;9.372;2023-03-26T00:56:10;6.645206321799196;;;6.625;100.0
15558;BME280;7880;50.110;9.372;2023-03-26T01:01:06;6.660332557797664;;;6.562;100.0
15558;BME280;7880;50.110;9.372;2023-03-26T01:06:10;6.660332557797664;;;6.562;100.0
15558;BME280;7880;50.110;9.372;2023-03-26T01:11:15;6.6099117813224435;;;6.562;100.0
15558;BME280;7880;50.110;9.372;2023-03-26T01:16:25;6.660332557797664;;;6.562;100.0
15558;BME280;7880;50.110;9.372;2023-03-26T01:21:38;6.630080088420073;;;6.562;100.0
15558;BME280;7880;50.110;9.372;2023-03-26T01:26:55;6.559491033951053;;;6.5;100.0
15558;BME280;7880;50.110;9.372;2023-03-26T01:31:51;6.574617255106569;;;6.5;100.0
15558;BME280;7880;50.110;9.372;2023-03-26T01:36:54;6.549406887969235;;;6.5;100.0
15558;BME280;7880;50.110;9.372;2023-03-26T01:41:56;6.53932274315157;;;6.5;100.0
15558;BME280;7880;50.110;9.372;2023-03-26T01:47:08;6.498986175522441;;;6.437;100.0
15558;BME280;7880;50.110;9.372;2023-03-26T01:51:35;6.498986175522441;;;6.437;100.0
15558;BME280;7880;50.110;9.372;2023-03-26T01:56:49;6.493944105878472;;;6.437;100.0
15558;BME280;7880;50.110;9.372;2023-03-26T02:01:51;6.463691694126465;;;6.437;100.0
15558;BME280;7880;50.110;9.372;2023-03-26T02:06:53;6.468733762024203;;;6.437;100.0
15558;BME280;7880;50.110;9.372;2023-03-26T02:11:54;6.478817898692796;;;6.375;100.0
15558;BME280;7880;50.110;9.372;2023-03-26T02:17:00;6.408228966459864;;;6.375;100.0
15558;BME280;7880;50.110;9.372;2023-03-26T02:22:05;6.383018647343851;;;6.312;100.0
15558;BME280;7880;50.110;9.372;2023-03-26T02:27:11;6.342682151892222;;;6.25;100.0
15558;BME280;7880;50.110;9.372;2023-03-26T02:32:13;6.342682151892222;;;6.25;100.0
15558;BME280;7880;50.110;9.372;2023-03-26T02:37:18;6.307387733651558;;;6.25;100.0
15558;BME280;7880;50.110;9.372;2023-03-26T02:42:23;6.332598030939698;;;6.25;100.0
15558;BME280;7880;50.110;9.372;2023-03-26T02:47:25;6.337640091270441;;;6.25;100.0
15558;BME280;7880;50.110;9.372;2023-03-26T02:52:33;6.3275559708999936;;;6.25;100.0
15558;BME280;7880;50.110;9.372;2023-03-26T02:57:34;6.347724212805042;;;6.25;100.0
15558;BME280;7880;50.110;9.372;2023-03-26T03:02:37;6.372934521734715;;;6.25;100.0
15558;BME280;7880;50.110;9.372;2023-03-26T03:07:46;6.25696716090315;;;6.25;100.0
15558;BME280;7880;50.110;9.372;2023-03-26T03:12:59;6.246883049845929;;;6.062;100.0
15558;BME280;7880;50.110;9.372;2023-03-26T03:18:04;6.2115886703133585;;;6.062;100.0
15558;BME280;7880;50.110;9.372;2023-03-26T03:23:14;6.18133635635022;;;6.0;100.0
15558;BME280;7880;50.110;9.372;2023-03-26T03:28:14;6.105705617280909;;;5.937;100.0
15558;BME280;7880;50.110;9.372;2023-03-26T03:33:26;5.883855827111984;;;5.75;100.0
15558;BME280;7880;50.110;9.372;2023-03-26T03:38:22;5.752763034129748;;;5.5;100.0
15558;BME280;7880;50.110;9.372;2023-03-26T03:43:34;6.0653692498861345;;;5.812;100.0
15558;BME280;7880;50.110;9.372;2023-03-26T03:48:49;6.009906775131822;;;5.875;100.0
15558;BME280;7880;50.110;9.372;2023-03-26T03:53:48;6.156126102717826;;;5.937;100.0
15558;BME280;7880;50.110;9.372;2023-03-26T03:58:48;6.1157897120399864;;;6.0;100.0
15558;BME280;7880;50.110;9.372;2023-03-26T04:03:56;6.161168152862229;;;6.0;100.0
15558;BME280;7880;50.110;9.372;2023-03-26T04:08:59;6.186378407949815;;;6.062;100.0
15558;BME280;7880;50.110;9.372;2023-03-26T04:14:04;6.105705617280909;;;5.937;100.0
15558;BME280;7880;50.110;9.372;2023-03-26T04:19:09;6.045201073173667;;;5.875;100.0
15558;BME280;7880;50.110;9.372;2023-03-26T04:24:15;5.838477530353702;;;5.687;100.0
15558;BME280;7880;50.110;9.372;2023-03-26T04:29:23;5.808225345611572;;;5.625;100.0
15558;BME280;7880;50.110;9.372;2023-03-26T04:34:29;5.68721671141684;;;5.437;100.0
15558;BME280;7880;50.110;9.372;2023-03-26T04:39:29;5.737636955291964;;;5.5;100.0
15558;BME280;7880;50.110;9.372;2023-03-26T04:44:34;5.702342781523475;;;5.562;100.0
15558;BME280;7880;50.110;9.372;2023-03-26T04:49:37;5.591418328235159;;;5.375;100.0
15558;BME280;7880;50.110;9.372;2023-03-26T04:54:43;5.576292277337052;;;5.375;100.0
15558;BME280;7880;50.110;9.372;2023-03-26T04:59:48;5.52083011312061;;;5.312;100.0
15558;BME280;7880;50.110;9.372;2023-03-26T05:04:52;5.586376310978085;;;5.312;100.0
15558;BME280;7880;50.110;9.372;2023-03-26T05:09:57;5.722510879073525;;;5.5;100.0
15558;BME280;7880;50.110;9.372;2023-03-26T05:15:05;5.682174688630039;;;5.5;100.0
15558;BME280;7880;50.110;9.372;2023-03-26T05:20:15;5.641838516813005;;;5.5;100.0
15558;BME280;7880;50.110;9.372;2023-03-26T05:25:10;5.581334294012049;;;5.437;100.0
15558;BME280;7880;50.110;9.372;2023-03-26T05:30:20;5.636796496645547;;;5.437;100.0
15558;BME280;7880;50.110;9.372;2023-03-26T05:35:21;5.566208244860173;;;5.437;100.0
15558;BME280;7880;50.110;9.372;2023-03-26T05:40:28;5.591418328235159;;;5.437;100.0
15558;BME280;7880;50.110;9.372;2023-03-26T05:45:34;5.571250260953093;;;5.437;100.0
15558;BME280;7880;50.110;9.372;2023-03-26T05:50:40;5.566208244860173;;;5.437;100.0
15558;BME280;7880;50.110;9.372;2023-03-26T05:55:46;5.611586400173837;;;5.5;100.0
15558;BME280;7880;50.110;9.372;2023-03-26T06:00:48;5.601502363622421;;;5.5;100.0
15558;BME280;7880;50.110;9.372;2023-03-26T06:05:53;5.651922558021033;;;5.5;100.0
15558;BME280;7880;50.110;9.372;2023-03-26T06:10:58;5.67209064392955;;;5.5;100.0
15558;BME280;7880;50.110;9.372;2023-03-26T06:16:00;5.692258734494681;;;5.5;100.0
15558;BME280;7880;50.110;9.372;2023-03-26T06:21:06;5.757805060991086;;;5.625;100.0
15558;BME280;7880;50.110;9.372;2023-03-26T06:26:12;5.863687692309031;;;5.687;100.0
15558;BME280;7880;50.110;9.372;2023-03-26T06:31:24;5.904023966571549;;;5.75;100.0
15558;BME280;7880;50.110;9.372;2023-03-26T06:36:33;5.9443602594605185;;;5.812;100.0
15558;BME280;7880;50.110;9.372;2023-03-26T06:41:23;5.974612491350854;;;5.812;100.0
15558;BME280;7880;50.110;9.372;2023-03-26T06:46:29;6.045201073173667;;;5.937;100.0
15558;BME280;7880;50.110;9.372;2023-03-26T06:51:41;6.035116986563662;;;5.937;100.0
15558;BME280;7880;50.110;9.372;2023-03-26T06:56:37;6.06032720527146;;;5.937;100.0
15558;BME280;7880;50.110;9.372;2023-03-26T07:01:42;6.176294305041665;;;6.0;100.0
15558;BME280;7880;50.110;9.372;2023-03-26T07:06:49;6.176294305041665;;;6.062;100.0
15558;BME280;7880;50.110;9.372;2023-03-26T07:11:53;6.357808335503796;;;6.25;100.0
15558;BME280;7880;50.110;9.372;2023-03-26T07:16:58;6.388060710584978;;;6.312;100.0
15558;BME280;7880;50.110;9.372;2023-03-26T07:22:03;6.56453310737852;;;6.437;100.0
15558;BME280;7880;50.110;9.372;2023-03-26T07:27:11;6.640164243715117;;;6.562;100.0
15558;BME280;7880;50.110;9.372;2023-03-26T07:32:15;6.625038011209108;;;6.562;100.0
15558;BME280;7880;50.110;9.372;2023-03-26T07:37:29;6.680500876536826;;;6.625;100.0
15558;BME280;7880;50.110;9.372;2023-03-26T07:42:30;6.7006691999326;;;6.625;100.0
15558;BME280;7880;50.110;9.372;2023-03-26T07:47:32;6.786384626314975;;;6.687;100.0
15558;BME280;7880;50.110;9.372;2023-03-26T07:52:28;6.756132113281637;;;6.687;100.0
15558;BME280;7880;50.110;9.372;2023-03-26T07:57:42;6.867058045626618;;;6.75;100.0
15558;BME280;7880;50.110;9.372;2023-03-26T08:02:46;7.02336300756433;;;6.875;100.0
15558;BME280;7880;50.110;9.372;2023-03-26T08:07:51;6.97294202154153;;;6.875;100.0
15558;BME280;7880;50.110;9.372;2023-03-26T08:12:51;6.846889683813788;;;6.75;100.0
15558;BME280;7880;50.110;9.372;2023-03-26T08:17:53;6.872100136807421;;;6.75;100.0
15558;BME280;7880;50.110;9.372;2023-03-26T08:22:59;6.821679238096112;;;6.75;100.0
15558;BME280;7880;50.110;9.372;2023-03-26T08:28:05;6.9275631590047855;;;6.812;100.0
15558;BME280;7880;50.110;9.372;2023-03-26T08:33:11;6.9023526900040455;;;6.812;100.0
15558;BME280;7880;50.110;9.372;2023-03-26T08:38:05;6.97294202154153;;;6.875;100.0
15558;BME280;7880;50.110;9.372;2023-03-26T08:43:32;7.1040366457367785;;;6.937;100.0
15558;BME280;7880;50.110;9.372;2023-03-26T08:48:54;7.083868229208747;;;6.937;100.0
15558;BME280;7880;50.110;9.372;2023-03-26T08:53:55;7.139331385865807;;;7.0;100.0
15558;BME280;7880;50.110;9.372;2023-03-26T08:58:57;7.154457707429538;;;7.0;100.0
15558;BME280;7880;50.110;9.372;2023-03-26T09:10:51;7.214963019877905;;;7.0;100.0
15558;BME280;7880;50.110;9.372;2023-03-26T09:16:10;7.154457707429538;;;7.0;100.0
15558;BME280;7880;50.110;9.372;2023-03-26T09:21:19;7.0284051077673215;;;6.875;100.0
15558;BME280;7880;50.110;9.372;2023-03-26T09:26:17;7.098994541168213;;;6.937;100.0
15558;BME280;7880;50.110;9.372;2023-03-26T09:31:27;7.003194609662751;;;6.875;100.0
15558;BME280;7880;50.110;9.372;2023-03-26T09:36:20;7.149415599950589;;;7.0;100.0
15558;BME280;7880;50.110;9.372;2023-03-26T09:41:34;7.093952436890686;;;6.937;100.0
15558;BME280;7880;50.110;9.372;2023-03-26T09:46:28;7.114120855747023;;;6.937;100.0
15558;BME280;7880;50.110;9.372;2023-03-26T09:52:10;7.245215691818157;;;7.062;100.0
15558;BME280;7880;50.110;9.372;2023-03-26T09:57:03;7.275468374235788;;;7.125;100.0
15558;BME280;7880;50.110;9.372;2023-03-26T10:02:17;7.134289279259974;;;7.0;100.0
15558;BME280;7880;50.110;9.372;2023-03-26T10:07:11;7.315805300424108;;;7.062;100.0
15558;BME280;7880;50.110;9.372;2023-03-26T10:12:19;6.846889683813788;;;6.75;100.0
15558;BME280;7880;50.110;9.372;2023-03-26T10:17:30;7.013278808031464;;;6.812;100.0
15558;BME280;7880;50.110;9.372;2023-03-26T10:22:30;7.129247172945179;;;6.937;100.0
15558;BME280;7880;50.110;9.372;2023-03-26T10:27:32;7.078826125804335;;;6.937;100.0
15558;BME280;7880;50.110;9.372;2023-03-26T10:32:33;7.038489309046417;;;6.875;100.0
15558;BME280;7880;50.110;9.372;2023-03-26T10:37:51;7.088910332904197;;;6.937;100.0
15558;BME280;7880;50.110;9.372;2023-03-26T10:42:59;7.083868229208747;;;6.937;100.0
15558;BME280;7880;50.110;9.372;2023-03-26T10:48:10;7.446900439175079;;;7.187;100.0
15558;BME280;7880;50.110;9.372;2023-03-26T10:52:59;7.240173579100519;;;7.062;100.0
15558;BME280;7880;50.110;9.372;2023-03-26T10:58:04;7.315805300424108;;;7.125;100.0
15558;BME280;7880;50.110;9.372;2023-03-26T11:03:19;7.416647697385633;;;7.25;100.0
15558;BME280;7880;50.110;9.372;2023-03-26T11:08:10;7.577995774667943;;;7.375;100.0
15558;BME280;7880;50.110;9.372;2023-03-26T11:13:18;7.2603420317173;;;7.187;100.0
15558;BME280;7880;50.110;9.372;2023-03-26T11:18:19;7.462026813998818;;;7.25;100.0
15558;BME280;7880;50.110;9.372;2023-03-26T11:23:30;7.820018449384952;;;7.562;100.0
15558;BME280;7880;50.110;9.372;2023-03-26T11:28:36;8.273812771827215;;;8.0;100.0
15558;BME280;7880;50.110;9.372;2023-03-26T11:33:35;8.374656274734297;;;8.312;100.0
15558;BME280;7880;50.110;9.372;2023-03-26T11:38:38;8.515837374381954;;;8.375;100.0
15558;BME280;7880;50.110;9.372;2023-03-26T11:43:43;8.445246796036372;;;8.375;100.0
15558;BME280;7880;50.110;9.372;2023-03-26T11:50:45;9.176366264466196;;;9.25;100.0
15558;BME280;7880;50.110;9.372;2023-03-26T11:55:53;8.868791121762479;;;8.875;100.0
15558;BME280;7880;50.110;9.372;2023-03-26T12:00:53;8.793158055841923;;;8.75;100.0
15558;BME280;7880;50.110;9.372;2023-03-26T12:06:21;8.556174873333656;;;8.437;100.0
15558;BME280;7880;50.110;9.372;2023-03-26T12:11:08;8.495668631891022;;;8.375;100.0
15558;BME280;7880;50.110;9.372;2023-03-26T12:16:12;8.425078069843584;;;8.312;100.0
15558;BME280;7880;50.110;9.372;2023-03-26T12:21:16;8.430120250955223;;;8.312;100.0
15558;BME280;7880;50.110;9.372;2023-03-26T12:26:20;8.541048309043981;;;8.375;100.0
15558;BME280;7880;50.110;9.372;2023-03-26T12:31:25;8.722567253396846;;;8.5;100.0
15558;BME280;7880;50.110;9.372;2023-03-26T12:36:30;8.662060896703043;;;8.562;100.0
15558;BME280;7880;50.110;9.372;2023-03-26T12:41:33;8.50575300255441;;;8.437;100.0
15558;BME280;7880;50.110;9.372;2023-03-26T12:46:35;8.389782810211182;;;8.25;100.0
15558;BME280;7880;50.110;9.372;2023-03-26T12:51:45;8.268770599737763;;;8.125;100.0
15558;BME280;7880;50.110;9.372;2023-03-26T12:57:00;8.056999634788372;;;7.937;100.0
15558;BME280;7880;50.110;9.372;2023-03-26T13:02:04;7.739344149973476;;;7.562;100.0
15558;BME280;7880;50.110;9.372;2023-03-26T13:07:11;7.421689820289612;;;7.312;100.0
15558;BME280;7880;50.110;9.372;2023-03-26T13:12:15;7.426731943484628;;;7.187;100.0
15558;BME280;7880;50.110;9.372;2023-03-26T13:17:26;7.320847417507321;;;7.0;100.0
15558;BME280;7880;50.110;9.372;2023-03-26T13:22:29;7.925903580430895;;;7.5;100.0
15558;BME280;7880;50.110;9.372;2023-03-26T13:27:32;7.835144888819196;;;7.562;100.0
15558;BME280;7880;50.110;9.372;2023-03-26T13:32:44;7.719175586762139;;;7.5;100.0
15558;BME280;7880;50.110;9.372;2023-03-26T13:37:42;7.784723434224725;;;7.562;100.0
15558;BME280;7880;50.110;9.372;2023-03-26T13:42:52;7.688922750676284;;;7.5;100.0
15558;BME280;7880;50.110;9.372;2023-03-26T13:47:49;8.021704523876542;;;7.75;100.0
15558;BME280;7880;50.110;9.372;2023-03-26T13:52:54;8.006578052137048;;;7.812;100.0
15558;BME280;7880;50.110;9.372;2023-03-26T13:58:00;8.556174873333656;;;8.25;100.0
15558;BME280;7880;50.110;9.372;2023-03-26T14:03:22;8.485584262391786;;;8.312;100.0
15558;BME280;7880;50.110;9.372;2023-03-26T14:08:10;8.591470200195909;;;8.5;100.0
15558;BME280;7880;50.110;9.372;2023-03-26T14:13:12;8.894002158287913;;;8.687;100.0
15558;BME280;7880;50.110;9.372;2023-03-26T14:18:26;8.97971973689855;;;8.875;100.0
15558;BME280;7880;50.110;9.372;2023-03-26T14:23:36;8.964593099267223;;;8.875;100.0
15558;BME280;7880;50.110;9.372;2023-03-26T14:28:47;8.944424253166654;;;8.875;100.0
15558;BME280;7880;50.110;9.372;2023-03-26T14:34:57;9.342759825853864;;;9.187;100.0
15558;BME280;7880;50.110;9.372;2023-03-26T14:39:56;9.171324040280888;;;9.125;100.0
15558;BME280;7880;50.110;9.372;2023-03-26T14:45:02;9.14611292371992;;;9.125;100.0
15558;BME280;7880;50.110;9.372;2023-03-26T14:50:18;9.130986257275799;;;9.062;100.0
15558;BME280;7880;50.110;9.372;2023-03-26T14:55:09;9.050310747144977;;;9.0;100.0
15558;BME280;7880;50.110;9.372;2023-03-26T15:01:22;8.984761950024403;;;8.875;100.0
15558;BME280;7880;50.110;9.372;2023-03-26T15:07:32;9.14611292371992;;;9.062;100.0
15558;BME280;7880;50.110;9.372;2023-03-26T15:12:28;9.020057450054447;;;8.875;100.0
15558;BME280;7880;50.110;9.372;2023-03-26T15:18:49;8.984761950024403;;;8.937;100.0
15558;BME280;7880;50.110;9.372;2023-03-26T15:23:56;8.989804163441296;;;8.937;100.0
15558;BME280;7880;50.110;9.372;2023-03-26T15:29:09;9.080564054712886;;;9.0;100.0
15558;BME280;7880;50.110;9.372;2023-03-26T15:41:14;9.161239592783385;;;9.187;100.0
15558;BME280;7880;50.110;9.372;2023-03-26T15:46:25;9.090648492897163;;;9.062;100.0
15558;BME280;7880;50.110;9.372;2023-03-26T15:53:11;8.919213202089304;;;8.937;100.0
15558;BME280;7880;50.110;9.372;2023-03-26T15:58:12;8.803242460847832;;;8.75;100.0
15558;BME280;7880;50.110;9.372;2023-03-26T16:03:18;8.83349568285048;;;8.75;100.0
15558;BME280;7880;50.110;9.372;2023-03-26T16:08:20;8.762904847809114;;;8.687;100.0
15558;BME280;7880;50.110;9.372;2023-03-26T16:13:28;8.727609451679745;;;8.687;100.0
15558;BME280;7880;50.110;9.372;2023-03-26T16:18:27;8.757862647488945;;;8.75;100.0
15558;BME280;7880;50.110;9.372;2023-03-26T16:23:51;8.783073652000166;;;8.75;100.0
15558;BME280;7880;50.110;9.372;2023-03-26T16:28:35;8.757862647488945;;;8.687;100.0
15558;BME280;7880;50.110;9.372;2023-03-26T16:33:46;8.697356266347924;;;8.687;100.0
15558;BME280;7880;50.110;9.372;2023-03-26T16:38:49;8.677187481947476;;;8.687;100.0
15558;BME280;7880;50.110;9.372;2023-03-26T16:43:57;7.467068939522141;;;7.75;100.0
15558;BME280;7880;50.110;9.372;2023-03-26T16:49:00;6.766216283128597;;;6.75;100.0
15558;BME280;7880;50.110;9.372;2023-03-26T16:54:13;6.342682151892222;;;6.187;100.0
15558;BME280;7880;50.110;9.372;2023-03-26T16:59:34;6.23679893995286;;;6.0;100.0
15558;BME280;7880;50.110;9.372;2023-03-26T17:04:26;6.317471851693699;;;6.0;100.0
15558;BME280;7880;50.110;9.372;2023-03-26T17:09:31;6.423355161421933;;;6.125;100.0
15558;BME280;7880;50.110;9.372;2023-03-26T17:14:34;6.423355161421933;;;6.187;100.0
15558;BME280;7880;50.110;9.372;2023-03-26T17:18:23;6.509070315683493;;;6.25;100.0
15558;BME280;7880;50.110;9.372;2023-03-26T17:23:27;6.488902036525542;;;6.25;100.0
15558;BME280;7880;50.110;9.372;2023-03-26T17:28:28;6.53932274315157;;;6.375;100.0
15558;BME280;7880;50.110;9.372;2023-03-26T17:33:32;6.589743478881428;;;6.375;100.0
15558;BME280;7880;50.110;9.372;2023-03-26T17:39:16;6.478817898692796;;;6.312;100.0
15558;BME280;7880;50.110;9.372;2023-03-26T17:43:58;6.625038011209108;;;6.375;100.0
15558;BME280;7880;50.110;9.372;2023-03-26T17:49:10;6.468733762024203;;;6.25;100.0
15558;BME280;7880;50.110;9.372;2023-03-26T17:54:15;6.347724212805042;;;6.187;100.0
15558;BME280;7880;50.110;9.372;2023-03-26T17:59:19;6.357808335503796;;;6.187;100.0
15558;BME280;7880;50.110;9.372;2023-03-26T18:04:20;6.362850397289731;;;6.187;100.0
15558;BME280;7880;50.110;9.372;2023-03-26T18:09:35;6.428397226991365;;;6.25;100.0
15558;BME280;7880;50.110;9.372;2023-03-26T18:21:35;6.4031869020545855;;;6.25;100.0
15558;BME280;7880;50.110;9.372;2023-03-26T18:26:36;6.438481359003345;;;6.25;100.0
15558;BME280;7880;50.110;9.372;2023-03-26T18:31:41;6.4132710311561825;;;6.25;100.0
15558;BME280;7880;50.110;9.372;2023-03-26T18:36:44;6.393102774117142;;;6.25;100.0
15558;BME280;7880;50.110;9.372;2023-03-26T18:41:48;6.433439292851835;;;6.25;100.0
15558;BME280;7880;50.110;9.372;2023-03-26T18:46:54;6.554448960814625;;;6.312;100.0
15558;BME280;7880;50.110;9.372;2023-03-26T18:52:01;6.317471851693699;;;6.187;100.0
15558;BME280;7880;50.110;9.372;2023-03-26T18:57:10;6.231756885442882;;;6.062;100.0
15558;BME280;7880;50.110;9.372;2023-03-26T19:02:10;6.1964625120221175;;;6.0;100.0
15558;BME280;7880;50.110;9.372;2023-03-26T19:07:15;6.100663570337929;;;5.937;100.0
15558;BME280;7880;50.110;9.372;2023-03-26T19:12:21;6.317471851693699;;;6.062;100.0
15558;BME280;7880;50.110;9.372;2023-03-26T19:17:23;6.105705617280909;;;6.0;100.0
15558;BME280;7880;50.110;9.372;2023-03-26T19:22:28;6.0956215236859865;;;5.937;100.0
15558;BME280;7880;50.110;9.372;2023-03-26T19:27:31;6.146042003302137;;;6.0;100.0
15558;BME280;7880;50.110;9.372;2023-03-26T19:32:37;6.070411294791848;;;5.937;100.0
15558;BME280;7880;50.110;9.372;2023-03-26T19:37:49;6.06032720527146;;;5.937;100.0
15558;BME280;7880;50.110;9.372;2023-03-26T19:42:48;6.1157897120399864;;;6.0;100.0
15558;BME280;7880;50.110;9.372;2023-03-26T19:47:52;6.161168152862229;;;6.0;100.0
15558;BME280;7880;50.110;9.372;2023-03-26T19:53:11;6.226714831223944;;;6.062;100.0
15558;BME280;7880;50.110;9.372;2023-03-26T19:57:59;5.89393989625969;;;5.875;100.0
15558;BME280;7880;50.110;9.372;2023-03-26T20:03:06;5.959486374096014;;;5.875;100.0
15558;BME280;7880;50.110;9.372;2023-03-26T20:08:14;5.878813792974688;;;5.812;100.0
15558;BME280;7880;50.110;9.372;2023-03-26T20:13:16;5.888897861540317;;;5.812;100.0
15558;BME280;7880;50.110;9.372;2023-03-26T20:18:19;5.9191500742221255;;;5.812;100.0
15558;BME280;7880;50.110;9.372;2023-03-26T20:23:32;5.904023966571549;;;5.75;100.0
15558;BME280;7880;50.110;9.372;2023-03-26T20:28:28;5.969570451974869;;;5.812;100.0
15558;BME280;7880;50.110;9.372;2023-03-26T20:33:34;6.075453339988599;;;5.875;100.0
15558;BME280;7880;50.110;9.372;2023-03-26T20:38:38;5.979654531017877;;;5.812;100.0
15558;BME280;7880;50.110;9.372;2023-03-26T20:43:43;6.019990858831443;;;5.812;100.0
15558;BME280;7880;50.110;9.372;2023-03-26T20:48:48;5.959486374096014;;;5.812;100.0
15558;BME280;7880;50.110;9.372;2023-03-26T20:53:51;5.909066002164036;;;5.812;100.0
15558;BME280;7880;50.110;9.372;2023-03-26T20:58:57;6.014948816836113;;;5.812;100.0
15558;BME280;7880;50.110;9.372;2023-03-26T21:04:04;5.883855827111984;;;5.75;100.0
15558;BME280;7880;50.110;9.372;2023-03-26T21:09:10;5.959486374096014;;;5.812;100.0
15558;BME280;7880;50.110;9.372;2023-03-26T21:14:17;5.934276184492046;;;5.812;100.0
15558;BME280;7880;50.110;9.372;2023-03-26T21:19:16;5.89393989625969;;;5.75;100.0
15558;BME280;7880;50.110;9.372;2023-03-26T21:24:40;5.8183094060281295;;;5.75;100.0
15558;BME280;7880;50.110;9.372;2023-03-26T21:29:44;5.858645659335889;;;5.75;100.0
15558;BME280;7880;50.110;9.372;2023-03-26T21:34:33;5.909066002164036;;;5.75;100.0
15558;BME280;7880;50.110;9.372;2023-03-26T21:39:36;5.823351436672965;;;5.75;100.0
15558;BME280;7880;50.110;9.372;2023-03-26T21:44:54;5.873771759128431;;;5.75;100.0
15558;BME280;7880;50.110;9.372;2023-03-26T21:49:49;5.7426789812801875;;;5.625;100.0
15558;BME280;7880;50.110;9.372;2023-03-26T21:54:54;5.581334294012049;;;5.562;100.0
15558;BME280;7880;50.110;9.372;2023-03-26T22:00:03;5.601502363622421;;;5.562;100.0
15558;BME280;7880;50.110;9.372;2023-03-26T22:05:04;5.60654438175261;;;5.5;100.0
15558;BME280;7880;50.110;9.372;2023-03-26T22:10:08;5.40990589033463;;;5.375;100.0
15558;BME280;7880;50.110;9.372;2023-03-26T22:15:13;5.430073920363793;;;5.312;100.0
15558;BME280;7880;50.110;9.372;2023-03-26T22:20:14;5.203183851018548;;;5.125;100.0
15558;BME280;7880;50.110;9.372;2023-03-26T22:24:24;5.1477219237072855;;;5.062;100.0
15558;BME280;7880;50.110;9.372;2023-03-26T22:29:28;5.1527639156440275;;;5.062;100.0
15558;BME280;7880;50.110;9.372;2023-03-26T22:34:34;4.996462300937855;;;4.937;100.0
15558;BME280;7880;50.110;9.372;2023-03-26T22:39:37;4.910748630971648;;;4.812;100.0
15558;BME280;7880;50.110;9.372;2023-03-26T22:44:40;4.693943841202417;;;4.625;100.0
15558;BME280;7880;50.110;9.372;2023-03-26T22:49:45;4.572936750674853;;;4.5;100.0
15558;BME280;7880;50.110;9.372;2023-03-26T22:54:50;4.401510326057905;;;4.312;100.0
15558;BME280;7880;50.110;9.372;2023-03-26T22:59:54;4.225042299204506;;;4.187;100.0
15558;BME280;7880;50.110;9.372;2023-03-26T23:04:58;4.139329386228928;;;4.125;100.0
15558;BME280;7880;50.110;9.372;2023-03-26T23:10:05;4.144371319958009;;;4.062;100.0
15558;BME280;7880;50.110;9.372;2023-03-26T23:15:09;3.957819965813542;;;3.875;100.0
15558;BME280;7880;50.110;9.372;2023-03-26T23:20:15;3.9426941978046672;;;3.812;100.0
15558;BME280;7880;50.110;9.372;2023-03-26T23:25:16;3.7712690101005135;;;3.687;100.0
15558;BME280;7880;50.110;9.372;2023-03-26T23:30:21;3.635137483064318;;;3.562;100.0
15558;BME280;7880;50.110;9.372;2023-03-26T23:35:25;3.5695927494205533;;;3.5;100.0
15558;BME280;7880;50.110;9.372;2023-03-26T23:40:37;3.453629110386828;;;3.437;100.0
15558;BME280;7880;50.110;9.372;2023-03-26T23:45:42;3.433461536705727;;;3.375;100.0
15558;BME280;7880;50.110;9.372;2023-03-26T23:50:55;3.3578331768745557;;;3.312;100.0
15558;BME280;7880;50.110;9.372;2023-03-26T23:55:51;3.4132939676812386;;;3.25;100.0
